PWSweather.com
Personal Weather Stations
Station Observations
KVAGLENALL
West Henrico, Glen Allen, VA 23060-6503

West HenricoGlen Allen, VA 23060-6503

Lat: 37.6554, Lon: -77.5693

Elevation: 273

Station Type: Davis Vantage Pro II

Latest ConditionsUpdated 1:15:14 PM EST Tuesday, Jan 22, 2019
Currently Today's Max Today's Min Today's Average
Temperature 34.6°F1.4°C 34.6°F1.4°C 10.9°F-11.7°C 19.0°F-7.2°C
Dew Point 7.1°F-13.8°C 10.1°F-12.2°C 3.5°F-15.8°C 6.1°F-14.4°C
Winds 4.0 mph S6.4 kmh S 7.0 mph -11.3 kmh - - 2.0 mph 3.2 kmh
Wind Gusts 5.1 mph8.2 kmh 7.1 mph11.4 kmh - -
Humidity 31% 80% 31% 59%
Pressure 30.68 in1038.9 mb 30.76 in1041.7 mb 30.61 in1036.6 mb -
Hour Temp Dew Point Humidity Winds Wind Gusts Pressure Precip Precip Rate Daily Precip Total
01:15 PM 34.6°F1.4°C 7.1°F-13.8°C 31% 4.0 mph S6.4 kmh S 5.1 mph8.2 kmh 30.68 in1038.9 mb 0.00 in0.0 mm 0.00 in0.0 mm 0.00 in0.0 mm
12:45 PM 32.9°F0.5°C 7.6°F-13.6°C 34% 2.0 mph SE3.2 kmh SE 7.1 mph11.4 kmh 30.70 in1039.6 mb 0.00 in0.0 mm 0.00 in0.0 mm 0.00 in0.0 mm
12:15 PM 32.0°F0.0°C 7.4°F-13.7°C 35% 3.0 mph NE4.8 kmh NE 4.0 mph6.4 kmh 30.72 in1040.3 mb 0.00 in0.0 mm 0.00 in0.0 mm 0.00 in0.0 mm
11:45 AM 31.7°F-0.2°C 10.1°F-12.2°C 40% 3.0 mph SW4.8 kmh SW 5.1 mph8.2 kmh 30.75 in1041.3 mb 0.00 in0.0 mm 0.00 in0.0 mm 0.00 in0.0 mm
11:31 AM 30.7°F-0.7°C 8.1°F-13.3°C 38% Calm Calm 3.0 mph4.8 kmh 30.75 in1041.3 mb 0.00 in0.0 mm 0.00 in0.0 mm 0.00 in0.0 mm
11:15 AM 29.3°F-1.5°C 5.6°F-14.7°C 36% 2.0 mph ENE3.2 kmh ENE 5.1 mph8.2 kmh 30.75 in1041.3 mb 0.00 in0.0 mm 0.00 in0.0 mm 0.00 in0.0 mm
10:45 AM 27.8°F-2.3°C 7.2°F-13.8°C 41% 7.0 mph NNE11.3 kmh NNE 7.1 mph11.4 kmh 30.76 in1041.7 mb 0.00 in0.0 mm 0.00 in0.0 mm 0.00 in0.0 mm
10:15 AM 26.5°F-3.1°C 8.6°F-13.0°C 46% 2.0 mph E3.2 kmh E 2.0 mph3.2 kmh 30.75 in1041.3 mb 0.00 in0.0 mm 0.00 in0.0 mm 0.00 in0.0 mm
09:45 AM 23.8°F-4.6°C 7.9°F-13.4°C 50% 1.0 mph ENE1.6 kmh ENE 2.0 mph3.2 kmh 30.76 in1041.7 mb 0.00 in0.0 mm 0.00 in0.0 mm 0.00 in0.0 mm
09:15 AM 21.2°F-6.0°C 8.8°F-12.9°C 58% 2.0 mph NNW3.2 kmh NNW 5.1 mph8.2 kmh 30.76 in1041.7 mb 0.00 in0.0 mm 0.00 in0.0 mm 0.00 in0.0 mm
08:45 AM 18.6°F-7.4°C 7.4°F-13.7°C 61% 2.0 mph NNE3.2 kmh NNE 4.0 mph6.4 kmh 30.74 in1041.0 mb 0.00 in0.0 mm 0.00 in0.0 mm 0.00 in0.0 mm
08:00 AM 13.7°F-10.2°C 8.4°F-13.1°C 79% 1.0 mph N1.6 kmh N 2.0 mph3.2 kmh 30.73 in1040.6 mb 0.00 in0.0 mm 0.00 in0.0 mm 0.00 in0.0 mm
07:30 AM 10.9°F-11.7°C 5.9°F-14.5°C 80% 2.0 mph N3.2 kmh N 2.0 mph3.2 kmh 30.71 in1040.0 mb 0.00 in0.0 mm 0.00 in0.0 mm 0.00 in0.0 mm
07:00 AM 11.0°F-11.7°C 5.2°F-14.9°C 77% Calm Calm 1.0 mph1.6 kmh 30.70 in1039.6 mb 0.00 in0.0 mm 0.00 in0.0 mm 0.00 in0.0 mm
06:30 AM 11.1°F-11.6°C 5.6°F-14.7°C 78% Calm Calm -- 30.68 in1038.9 mb 0.00 in0.0 mm 0.00 in0.0 mm 0.00 in0.0 mm
06:00 AM 11.8°F-11.2°C 5.7°F-14.6°C 76% 1.0 mph N1.6 kmh N 1.0 mph1.6 kmh 30.68 in1038.9 mb 0.00 in0.0 mm 0.00 in0.0 mm 0.00 in0.0 mm
05:30 AM 12.1°F-11.1°C 4.5°F-15.3°C 71% Calm Calm 1.0 mph1.6 kmh 30.67 in1038.6 mb 0.00 in0.0 mm 0.00 in0.0 mm 0.00 in0.0 mm
05:00 AM 13.6°F-10.2°C 4.7°F-15.2°C 67% 3.0 mph NNW4.8 kmh NNW 3.0 mph4.8 kmh 30.65 in1037.9 mb 0.00 in0.0 mm 0.00 in0.0 mm 0.00 in0.0 mm
04:30 AM 13.1°F-10.5°C 5.1°F-14.9°C 70% 4.0 mph NE6.4 kmh NE 6.1 mph9.8 kmh 30.65 in1037.9 mb 0.00 in0.0 mm 0.00 in0.0 mm 0.00 in0.0 mm
04:00 AM 12.4°F-10.9°C 5.4°F-14.8°C 73% 2.0 mph NNE3.2 kmh NNE 2.0 mph3.2 kmh 30.67 in1038.6 mb 0.00 in0.0 mm 0.00 in0.0 mm 0.00 in0.0 mm
03:30 AM 12.1°F-11.1°C 4.8°F-15.1°C 72% Calm Calm 1.0 mph1.6 kmh 30.69 in1039.3 mb 0.00 in0.0 mm 0.00 in0.0 mm 0.00 in0.0 mm
03:00 AM 12.9°F-10.6°C 4.6°F-15.2°C 69% 1.0 mph N1.6 kmh N 1.0 mph1.6 kmh 30.67 in1038.6 mb 0.00 in0.0 mm 0.00 in0.0 mm 0.00 in0.0 mm
02:30 AM 14.1°F-9.9°C 4.5°F-15.3°C 65% 1.0 mph NNE1.6 kmh NNE 2.0 mph3.2 kmh 30.63 in1037.3 mb 0.00 in0.0 mm 0.00 in0.0 mm 0.00 in0.0 mm
02:00 AM 14.7°F-9.6°C 4.7°F-15.2°C 64% 3.0 mph NNE4.8 kmh NNE 4.0 mph6.4 kmh 30.62 in1036.9 mb 0.00 in0.0 mm 0.00 in0.0 mm 0.00 in0.0 mm
01:30 AM 14.7°F-9.6°C 4.7°F-15.2°C 64% 2.0 mph NE3.2 kmh NE 5.1 mph8.2 kmh 30.63 in1037.3 mb 0.00 in0.0 mm 0.00 in0.0 mm 0.00 in0.0 mm
01:00 AM 14.0°F-10.0°C 4.4°F-15.3°C 65% 2.0 mph NNE3.2 kmh NNE 4.0 mph6.4 kmh 30.63 in1037.3 mb 0.00 in0.0 mm 0.00 in0.0 mm 0.00 in0.0 mm
12:30 AM 14.8°F-9.6°C 4.1°F-15.5°C 62% 2.0 mph NE3.2 kmh NE 3.0 mph4.8 kmh 30.63 in1037.3 mb 0.00 in0.0 mm 0.00 in0.0 mm 0.00 in0.0 mm
12:00 AM 15.7°F-9.1°C 3.5°F-15.8°C 58% 3.0 mph NNE4.8 kmh NNE 5.1 mph8.2 kmh 30.61 in1036.6 mb 0.00 in0.0 mm 0.00 in0.0 mm 0.00 in0.0 mm